Time;durP1;ratioP1;P1;durP2;ratioP2;P2;SDS_P1;SDS_P2;PMS_P1;PMS_P2;Temp;Humidity;BMP_temperature;BMP_pressure;BME280_temperature;BME280_humidity;BME280_pressure;Samples;Min_cycle;Max_cycle;Signal;HPM_P1;HPM_P2
2022/03/22 00:00:55;;;;;;;24.27;13.50;;;7.20;99.90;;;;;;5071702;28;20390;-80
2022/03/22 00:03:40;;;;;;;22.03;14.90;;;7.10;99.90;;;;;;5070275;28;20386;-79
2022/03/22 00:06:25;;;;;;;16.13;14.40;;;7.20;99.90;;;;;;5071885;28;20389;-80
2022/03/22 00:09:10;;;;;;;22.20;15.07;;;7.00;99.90;;;;;;5070946;28;20409;-80
2022/03/22 00:11:54;;;;;;;22.90;14.30;;;7.00;99.90;;;;;;5071599;28;20393;-80
2022/03/22 00:14:40;;;;;;;22.47;15.83;;;7.00;99.90;;;;;;5071233;28;20450;-80
2022/03/22 00:17:24;;;;;;;14.80;13.13;;;7.00;99.90;;;;;;5071362;28;20394;-80
2022/03/22 00:20:10;;;;;;;16.83;11.83;;;7.00;99.90;;;;;;5071113;28;20394;-80
2022/03/22 00:22:55;;;;;;;27.23;14.93;;;7.00;99.90;;;;;;5070069;28;20414;-80
2022/03/22 00:25:39;;;;;;;19.77;13.77;;;6.80;99.90;;;;;;5071275;28;20421;-80
2022/03/22 00:28:24;;;;;;;32.20;14.20;;;6.80;99.90;;;;;;5071344;28;20393;-80
2022/03/22 00:31:09;;;;;;;18.07;13.17;;;6.80;99.90;;;;;;5070527;28;20403;-80
2022/03/22 00:33:53;;;;;;;19.90;14.07;;;6.70;99.90;;;;;;5070121;28;20440;-80
2022/03/22 00:36:37;;;;;;;20.53;12.43;;;6.80;99.90;;;;;;5072061;28;20443;-79
2022/03/22 00:39:22;;;;;;;15.23;11.20;;;6.70;99.90;;;;;;5077011;28;20463;-80
2022/03/22 00:42:07;;;;;;;23.03;13.40;;;6.70;99.90;;;;;;5071472;28;20730;-80
2022/03/22 00:44:54;;;;;;;21.97;14.40;;;6.60;99.90;;;;;;5067540;28;20470;-79
2022/03/22 00:47:39;;;;;;;15.77;12.77;;;6.60;99.90;;;;;;5068841;28;20417;-80
2022/03/22 00:50:27;;;;;;;22.13;13.10;;;6.60;99.90;;;;;;5069602;28;20796;-80
2022/03/22 00:53:13;;;;;;;17.83;11.57;;;6.50;99.90;;;;;;5067378;28;20760;-78
2022/03/22 00:56:00;;;;;;;19.60;13.63;;;6.50;99.90;;;;;;5069554;28;20465;-80
2022/03/22 00:58:45;;;;;;;23.73;13.07;;;6.40;99.90;;;;;;5069942;28;20378;-80
2022/03/22 01:01:30;;;;;;;20.27;13.40;;;6.40;99.90;;;;;;5070257;28;20394;-80
2022/03/22 01:04:14;;;;;;;19.93;12.40;;;6.40;99.90;;;;;;5068308;28;20458;-80
2022/03/22 01:06:59;;;;;;;17.57;13.33;;;6.40;99.90;;;;;;5070387;28;20470;-80
2022/03/22 01:09:44;;;;;;;18.30;14.50;;;6.40;99.90;;;;;;5069877;28;20452;-80
2022/03/22 01:12:30;;;;;;;20.67;12.07;;;6.30;99.90;;;;;;5069715;28;20409;-80
2022/03/22 01:15:20;;;;;;;11.47;10.23;;;6.40;99.90;;;;;;5069884;28;20461;-80
2022/03/22 01:18:07;;;;;;;14.87;11.40;;;6.40;99.90;;;;;;5070480;28;20395;-80
2022/03/22 01:20:51;;;;;;;20.27;13.17;;;6.30;99.90;;;;;;5068825;28;20425;-80
2022/03/22 01:23:36;;;;;;;16.80;11.83;;;6.20;99.90;;;;;;5067551;28;20470;-78
2022/03/22 01:26:20;;;;;;;15.00;12.17;;;6.10;99.90;;;;;;5069141;28;20386;-80
2022/03/22 01:29:05;;;;;;;19.57;13.00;;;6.20;99.90;;;;;;5069742;28;20394;-80
2022/03/22 01:31:50;;;;;;;15.40;12.83;;;6.10;99.90;;;;;;5070191;28;20397;-80
2022/03/22 01:34:34;;;;;;;20.37;13.70;;;6.10;99.90;;;;;;5068183;28;20445;-80
2022/03/22 01:37:19;;;;;;;16.60;10.70;;;6.10;99.90;;;;;;5069936;28;20450;-80
2022/03/22 01:40:05;;;;;;;20.40;11.70;;;6.10;99.90;;;;;;5068656;28;20409;-79
2022/03/22 01:42:51;;;;;;;20.73;13.90;;;6.10;99.90;;;;;;5063686;28;20385;-80
2022/03/22 01:45:35;;;;;;;12.83;10.43;;;6.10;99.90;;;;;;5061857;28;20810;-80
2022/03/22 01:48:20;;;;;;;14.47;10.17;;;6.10;99.90;;;;;;5062175;28;20471;-80
2022/03/22 01:51:05;;;;;;;14.47;11.40;;;6.00;99.90;;;;;;5060478;28;20445;-80
2022/03/22 01:53:50;;;;;;;14.83;11.30;;;6.00;99.90;;;;;;5062822;28;20413;-80
2022/03/22 01:56:36;;;;;;;21.53;13.80;;;6.00;99.90;;;;;;5062406;28;20460;-80
2022/03/22 01:59:20;;;;;;;23.90;14.37;;;6.00;99.90;;;;;;5061653;28;20404;-80
2022/03/22 02:08:11;;;;;;;19.83;13.00;;;5.90;99.90;;;;;;5062784;28;20402;-79
2022/03/22 02:10:59;;;;;;;16.13;12.63;;;5.90;99.90;;;;;;5063318;28;20433;-80
2022/03/22 02:13:43;;;;;;;23.03;12.33;;;5.80;99.90;;;;;;5063037;28;20402;-80
2022/03/22 02:16:28;;;;;;;20.00;11.70;;;5.70;99.90;;;;;;5062781;28;20389;-80
2022/03/22 02:19:15;;;;;;;14.80;12.13;;;5.70;99.90;;;;;;5063475;28;20409;-79
2022/03/22 02:22:02;;;;;;;18.70;11.53;;;5.70;99.90;;;;;;5067254;28;20409;-80
2022/03/22 02:24:46;;;;;;;15.90;10.73;;;5.60;99.90;;;;;;5068981;28;20413;-79
2022/03/22 02:27:34;;;;;;;18.10;12.90;;;5.60;99.90;;;;;;5068709;28;20378;-79
2022/03/22 02:30:19;;;;;;;15.80;11.27;;;5.60;99.90;;;;;;5081667;28;20449;-79
2022/03/22 02:33:04;;;;;;;15.20;12.87;;;5.50;99.90;;;;;;5066330;28;20473;-79
2022/03/22 02:35:48;;;;;;;18.50;11.67;;;5.50;99.90;;;;;;5067874;28;20496;-79
2022/03/22 02:38:33;;;;;;;16.40;11.20;;;5.50;99.90;;;;;;5068132;28;20421;-80
2022/03/22 02:41:20;;;;;;;17.40;11.83;;;5.50;99.90;;;;;;5068755;28;20422;-79
2022/03/22 02:44:05;;;;;;;16.30;12.33;;;5.50;99.90;;;;;;5068765;28;20459;-80
2022/03/22 02:46:50;;;;;;;12.90;11.33;;;5.40;99.90;;;;;;5068481;28;20520;-79
2022/03/22 02:49:35;;;;;;;18.83;12.87;;;5.40;99.90;;;;;;5068437;28;20547;-79
2022/03/22 02:52:19;;;;;;;14.97;10.67;;;5.40;99.90;;;;;;5068857;28;20390;-79
2022/03/22 02:55:06;;;;;;;16.97;11.30;;;5.30;99.90;;;;;;5068002;28;20453;-79
2022/03/22 02:57:51;;;;;;;23.10;15.18;;;5.30;99.90;;;;;;5067127;28;20403;-79
2022/03/22 03:00:35;;;;;;;22.43;13.90;;;5.30;99.90;;;;;;5068347;28;20163;-79
2022/03/22 03:03:22;;;;;;;14.10;10.87;;;5.20;99.90;;;;;;5068579;28;20448;-80
2022/03/22 03:06:07;;;;;;;20.30;11.90;;;5.20;99.90;;;;;;5068049;28;20457;-80
2022/03/22 03:08:52;;;;;;;16.40;10.30;;;5.20;99.90;;;;;;5068779;28;20394;-80
2022/03/22 03:11:37;;;;;;;20.80;12.77;;;5.20;99.90;;;;;;5069356;28;20398;-80
2022/03/22 03:17:19;;;;;;;17.70;10.73;;;5.10;99.90;;;;;;5072756;28;20394;-80
2022/03/22 03:20:06;;;;;;;14.57;10.17;;;5.10;99.90;;;;;;5071846;28;20472;-80
2022/03/22 03:22:51;;;;;;;20.20;10.07;;;5.10;99.90;;;;;;5072380;28;20386;-79
2022/03/22 03:25:36;;;;;;;14.57;11.57;;;5.10;99.90;;;;;;5071923;28;20462;-80
2022/03/22 03:28:21;;;;;;;14.80;10.53;;;5.00;99.90;;;;;;5071565;28;20406;-80
2022/03/22 03:31:06;;;;;;;17.90;10.27;;;5.00;99.90;;;;;;5070205;28;20393;-80
2022/03/22 03:33:51;;;;;;;17.80;9.43;;;5.00;99.90;;;;;;5070330;28;20801;-80
2022/03/22 03:36:36;;;;;;;17.97;9.43;;;5.00;99.90;;;;;;5071685;28;20380;-80
2022/03/22 03:39:21;;;;;;;13.67;8.53;;;5.00;99.90;;;;;;5071407;28;20447;-80
2022/03/22 03:42:07;;;;;;;15.63;8.83;;;4.90;99.90;;;;;;5071729;28;20386;-79
2022/03/22 03:47:47;;;;;;;14.80;9.60;;;4.90;99.90;;;;;;5071804;28;20382;-79
2022/03/22 03:50:31;;;;;;;16.00;9.47;;;4.90;99.90;;;;;;5070593;28;20386;-80
2022/03/22 03:53:16;;;;;;;11.80;9.10;;;4.80;99.90;;;;;;5070842;28;20394;-79
2022/03/22 03:56:01;;;;;;;20.17;11.43;;;4.80;99.90;;;;;;5070866;28;20457;-79
2022/03/22 03:58:46;;;;;;;13.70;9.23;;;4.80;99.90;;;;;;5070877;28;20390;-80
2022/03/22 04:01:32;;;;;;;19.10;10.70;;;4.70;99.90;;;;;;5070762;28;20386;-79
2022/03/22 04:04:16;;;;;;;11.40;9.60;;;4.80;99.90;;;;;;5071013;28;20395;-79
2022/03/22 04:07:02;;;;;;;15.27;8.40;;;4.80;99.90;;;;;;5083307;28;20429;-79
2022/03/22 04:09:47;;;;;;;14.67;10.10;;;4.70;99.90;;;;;;5070821;28;20455;-79
2022/03/22 04:12:31;;;;;;;12.03;9.47;;;4.70;99.90;;;;;;5062082;28;20378;-79
2022/03/22 04:15:15;;;;;;;18.40;10.10;;;4.80;99.90;;;;;;5065850;28;20445;-79
2022/03/22 04:18:00;;;;;;;14.70;8.67;;;4.80;99.90;;;;;;5070345;28;20410;-80
2022/03/22 04:20:47;;;;;;;14.60;10.20;;;4.70;99.90;;;;;;5083444;28;20413;-80
2022/03/22 04:23:32;;;;;;;12.63;9.37;;;4.70;99.90;;;;;;5070516;28;20391;-80
2022/03/22 04:26:17;;;;;;;14.03;9.80;;;4.60;99.90;;;;;;5069687;28;20401;-79
2022/03/22 04:34:56;;;;;;;17.23;10.63;;;4.40;99.90;;;;;;5070647;28;20445;-80
2022/03/22 04:37:41;;;;;;;14.97;9.40;;;4.40;99.90;;;;;;5069990;28;20406;-80
2022/03/22 04:40:26;;;;;;;12.33;9.80;;;4.40;99.90;;;;;;5069449;28;20401;-80
2022/03/22 04:43:10;;;;;;;13.90;9.10;;;4.40;99.90;;;;;;5070268;28;20440;-80
2022/03/22 04:45:54;;;;;;;10.37;7.53;;;4.50;99.90;;;;;;5068527;28;20442;-79
2022/03/22 04:48:39;;;;;;;9.97;8.93;;;4.50;99.90;;;;;;5069406;28;20828;-79
2022/03/22 04:57:27;;;;;;;13.37;8.67;;;4.40;99.90;;;;;;5067609;28;20406;-80
2022/03/22 05:00:12;;;;;;;13.43;9.80;;;4.30;99.90;;;;;;5069875;28;20397;-80
2022/03/22 05:02:57;;;;;;;12.00;8.93;;;4.40;99.90;;;;;;5070531;28;20393;-80
2022/03/22 05:08:37;;;;;;;19.80;11.50;;;4.30;99.90;;;;;;5053621;28;20454;-80
2022/03/22 05:11:22;;;;;;;14.10;10.00;;;4.20;99.90;;;;;;5055458;28;20449;-80
2022/03/22 05:14:08;;;;;;;13.07;7.77;;;4.20;99.90;;;;;;5070173;28;20452;-80
2022/03/22 05:16:56;;;;;;;12.30;10.17;;;4.20;99.90;;;;;;5069633;28;20389;-80
2022/03/22 05:19:41;;;;;;;13.53;9.03;;;4.20;99.90;;;;;;5069161;28;20382;-80
2022/03/22 05:22:25;;;;;;;12.87;10.00;;;4.20;99.90;;;;;;5069469;28;20390;-80
2022/03/22 05:25:10;;;;;;;15.30;9.60;;;4.20;99.90;;;;;;5069438;28;20390;-80
2022/03/22 05:27:54;;;;;;;17.73;10.53;;;4.20;99.90;;;;;;5069023;28;20413;-80
2022/03/22 05:30:39;;;;;;;15.07;10.43;;;4.10;99.90;;;;;;5069940;28;20474;-79
2022/03/22 05:33:24;;;;;;;13.25;10.13;;;4.10;99.90;;;;;;5069423;28;20411;-79
2022/03/22 05:36:09;;;;;;;14.87;10.90;;;3.90;99.90;;;;;;5066124;28;20245;-80
2022/03/22 05:38:53;;;;;;;20.00;8.83;;;3.80;99.90;;;;;;5067771;28;20466;-80
2022/03/22 05:41:38;;;;;;;12.70;8.97;;;3.90;99.90;;;;;;5066975;28;20402;-80
2022/03/22 05:44:24;;;;;;;17.00;9.70;;;3.80;99.90;;;;;;5066378;28;20453;-80
2022/03/22 05:47:09;;;;;;;28.80;10.33;;;3.60;99.90;;;;;;5069287;28;20935;-79
2022/03/22 05:49:55;;;;;;;14.60;9.77;;;3.60;99.90;;;;;;5070044;28;20401;-81
2022/03/22 05:52:49;;;;;;;11.53;8.07;;;3.70;99.90;;;;;;5070264;28;20466;-81
2022/03/22 05:55:33;;;;;;;16.70;9.77;;;3.90;99.90;;;;;;5069140;28;20470;-80
2022/03/22 05:58:18;;;;;;;21.67;10.53;;;4.00;99.90;;;;;;5069389;28;20390;-81
2022/03/22 06:01:03;;;;;;;15.73;10.00;;;4.10;99.90;;;;;;5066604;28;20432;-81
2022/03/22 06:03:47;;;;;;;15.53;10.53;;;3.90;99.90;;;;;;5067708;28;20454;-81
2022/03/22 06:06:31;;;;;;;13.10;8.50;;;3.90;99.90;;;;;;5049186;28;20442;-81
2022/03/22 06:09:16;;;;;;;12.97;9.30;;;4.10;99.90;;;;;;5063098;28;20525;-80
2022/03/22 06:12:01;;;;;;;12.23;9.90;;;4.00;99.90;;;;;;5065786;28;20469;-80
2022/03/22 06:14:45;;;;;;;14.77;10.33;;;4.20;99.90;;;;;;5048618;28;20450;-79
2022/03/22 06:17:33;;;;;;;14.53;9.43;;;4.30;99.90;;;;;;5047926;28;20398;-79
2022/03/22 06:20:19;;;;;;;12.63;9.63;;;4.20;99.90;;;;;;5056859;28;20413;-81
2022/03/22 06:23:07;;;;;;;12.57;10.30;;;4.20;99.90;;;;;;5067896;28;20417;-81
2022/03/22 06:25:51;;;;;;;13.53;8.27;;;4.20;99.90;;;;;;5069740;28;20386;-80
2022/03/22 06:28:36;;;;;;;13.13;8.73;;;4.40;99.90;;;;;;5069763;28;20402;-80
2022/03/22 06:31:20;;;;;;;12.50;10.03;;;4.60;99.90;;;;;;5067730;28;20906;-80
2022/03/22 06:34:05;;;;;;;17.17;9.70;;;4.60;99.90;;;;;;5069165;28;20460;-80
2022/03/22 06:36:51;;;;;;;10.67;8.50;;;4.60;99.90;;;;;;5070115;28;20394;-80
2022/03/22 06:39:35;;;;;;;14.80;9.73;;;4.60;99.90;;;;;;5069037;28;20475;-80
2022/03/22 06:42:21;;;;;;;17.77;10.17;;;4.70;99.90;;;;;;5050565;28;20406;-79
2022/03/22 06:45:06;;;;;;;12.70;9.20;;;4.70;99.90;;;;;;5049364;28;20394;-79
2022/03/22 06:47:51;;;;;;;21.53;10.63;;;4.70;99.90;;;;;;5048634;28;20454;-80
2022/03/22 06:50:37;;;;;;;12.33;8.83;;;4.70;99.90;;;;;;5064300;28;20417;-81
2022/03/22 06:53:21;;;;;;;15.83;9.77;;;4.90;99.90;;;;;;5065512;28;20406;-80
2022/03/22 06:56:06;;;;;;;15.73;8.30;;;4.90;99.90;;;;;;5058507;28;20629;-79
2022/03/22 06:58:51;;;;;;;11.87;8.30;;;5.00;99.90;;;;;;5071926;28;20377;-80
2022/03/22 07:01:35;;;;;;;8.83;7.87;;;5.10;99.90;;;;;;5074141;28;20393;-81
2022/03/22 07:04:19;;;;;;;12.90;9.77;;;5.10;99.90;;;;;;5073200;28;20449;-80
2022/03/22 07:07:03;;;;;;;17.97;10.27;;;5.10;99.90;;;;;;5064004;28;20418;-80
2022/03/22 07:09:48;;;;;;;12.30;9.50;;;5.10;99.90;;;;;;5055265;28;20399;-80
2022/03/22 07:12:33;;;;;;;12.57;9.63;;;5.10;99.90;;;;;;5054666;28;20421;-80
2022/03/22 07:15:23;;;;;;;16.47;10.33;;;5.10;99.90;;;;;;5070146;28;20485;-80
2022/03/22 07:18:11;;;;;;;14.20;10.67;;;5.20;99.90;;;;;;5062851;28;20417;-80
2022/03/22 07:20:56;;;;;;;12.93;8.80;;;5.20;99.90;;;;;;5057359;28;20429;-81
2022/03/22 07:23:41;;;;;;;20.03;9.40;;;5.40;99.90;;;;;;5081434;28;20407;-80
2022/03/22 07:26:25;;;;;;;11.80;9.73;;;5.50;99.90;;;;;;5073462;28;20461;-80
2022/03/22 07:29:10;;;;;;;13.43;9.13;;;5.50;99.90;;;;;;5068475;28;20425;-81
2022/03/22 07:31:56;;;;;;;13.57;9.80;;;5.60;99.90;;;;;;5070311;28;20438;-80
2022/03/22 07:34:41;;;;;;;14.60;10.47;;;5.60;99.90;;;;;;5068342;28;20469;-80
2022/03/22 07:37:28;;;;;;;24.73;11.07;;;5.70;99.90;;;;;;5059726;28;20418;-81
2022/03/22 07:40:13;;;;;;;14.73;9.57;;;5.80;99.90;;;;;;5069175;28;20418;-80
2022/03/22 07:42:58;;;;;;;16.73;9.37;;;5.90;99.90;;;;;;5069870;28;20410;-81
2022/03/22 07:45:42;;;;;;;15.37;9.37;;;6.00;99.90;;;;;;5063479;28;20486;-80
2022/03/22 07:48:26;;;;;;;19.33;10.73;;;5.70;99.90;;;;;;5062117;28;20774;-80
2022/03/22 07:54:08;;;;;;;15.93;10.43;;;6.00;99.90;;;;;;5066305;28;20482;-81
2022/03/22 07:56:53;;;;;;;17.43;11.33;;;6.00;99.90;;;;;;5062543;28;20406;-80
2022/03/22 07:59:38;;;;;;;15.50;10.77;;;6.30;99.90;;;;;;5065177;28;20414;-79
2022/03/22 08:02:22;;;;;;;16.97;12.13;;;6.40;99.90;;;;;;5069739;28;20424;-80
2022/03/22 08:05:08;;;;;;;15.17;11.60;;;6.40;99.90;;;;;;5074823;28;20522;-79
2022/03/22 08:07:53;;;;;;;13.57;10.37;;;6.70;99.90;;;;;;5068194;28;20402;-79
2022/03/22 08:10:39;;;;;;;15.67;10.30;;;6.80;99.90;;;;;;5068227;28;20479;-79
2022/03/22 08:13:23;;;;;;;15.13;10.07;;;7.00;99.90;;;;;;5065493;28;20802;-80
2022/03/22 08:16:07;;;;;;;19.40;11.00;;;6.90;99.90;;;;;;5068729;28;20520;-80
2022/03/22 08:18:52;;;;;;;13.13;9.70;;;7.10;99.90;;;;;;5063080;28;20938;-80
2022/03/22 08:21:37;;;;;;;12.93;9.70;;;7.30;99.90;;;;;;5069258;28;20443;-80
2022/03/22 08:24:22;;;;;;;16.07;9.37;;;7.50;99.90;;;;;;5070973;28;20436;-80
2022/03/22 08:27:07;;;;;;;18.63;10.80;;;7.70;99.90;;;;;;5077804;28;20484;-80
2022/03/22 08:29:52;;;;;;;14.17;10.33;;;7.80;99.90;;;;;;5078384;28;20458;-80
2022/03/22 08:32:36;;;;;;;12.30;9.93;;;8.00;99.90;;;;;;5072571;28;20425;-80
2022/03/22 08:35:23;;;;;;;11.23;10.13;;;8.10;99.90;;;;;;5074863;28;20473;-80
2022/03/22 08:38:10;;;;;;;14.50;9.90;;;8.30;99.90;;;;;;5060376;28;20434;-81
2022/03/22 08:40:56;;;;;;;15.10;8.90;;;8.40;99.90;;;;;;5056239;28;20415;-79
2022/03/22 08:43:40;;;;;;;16.27;7.97;;;8.70;99.90;;;;;;5069435;28;20414;-79
2022/03/22 08:46:25;;;;;;;14.23;10.43;;;9.00;99.90;;;;;;5056509;28;20442;-79
2022/03/22 08:49:10;;;;;;;13.27;9.63;;;9.20;99.90;;;;;;5062452;28;20414;-79
2022/03/22 08:51:54;;;;;;;10.70;8.80;;;9.40;99.90;;;;;;5061288;28;20453;-79
2022/03/22 08:54:39;;;;;;;14.50;8.90;;;9.60;99.90;;;;;;5055405;28;20470;-79
2022/03/22 08:57:23;;;;;;;14.13;8.37;;;9.70;99.90;;;;;;5064560;28;20495;-81
2022/03/22 09:00:11;;;;;;;12.47;8.73;;;9.90;98.90;;;;;;5068918;28;20448;-80
2022/03/22 09:02:55;;;;;;;17.80;8.87;;;10.20;99.90;;;;;;5066530;28;20417;-80
2022/03/22 09:08:43;;;;;;;10.70;9.13;;;10.80;96.70;;;;;;5073672;28;20459;-81
2022/03/22 09:11:28;;;;;;;9.83;8.33;;;10.80;90.80;;;;;;5068328;28;20505;-81
2022/03/22 09:14:13;;;;;;;19.67;8.30;;;11.20;98.60;;;;;;5069077;28;20440;-79
2022/03/22 09:16:58;;;;;;;11.67;8.30;;;11.50;92.30;;;;;;5061775;28;20430;-82
2022/03/22 09:19:42;;;;;;;8.90;7.77;;;11.30;85.80;;;;;;5073265;28;20437;-81
2022/03/22 09:22:27;;;;;;;12.13;8.27;;;11.20;90.00;;;;;;5066184;28;20402;-81
2022/03/22 09:25:12;;;;;;;8.87;7.57;;;11.60;83.10;;;;;;5061092;28;20476;-81
2022/03/22 09:28:00;;;;;;;16.23;8.93;;;12.10;84.30;;;;;;5068592;28;20420;-82
2022/03/22 09:30:48;;;;;;;15.23;9.90;;;12.20;80.10;;;;;;5053610;28;20573;-82
2022/03/22 09:33:32;;;;;;;10.10;7.30;;;11.70;80.40;;;;;;5082046;28;20409;-81
2022/03/22 09:36:18;;;;;;;12.13;9.50;;;11.60;81.90;;;;;;5069462;28;20464;-81
2022/03/22 09:39:04;;;;;;;13.30;8.77;;;11.60;82.50;;;;;;5077729;28;20422;-82
2022/03/22 09:41:51;;;;;;;9.80;8.53;;;11.80;73.20;;;;;;5073094;28;20432;-82
2022/03/22 09:44:36;;;;;;;14.73;8.20;;;12.50;72.60;;;;;;5069084;28;20566;-80
2022/03/22 09:47:24;;;;;;;13.70;9.90;;;13.10;68.50;;;;;;5060559;28;20436;-82
2022/03/22 09:50:10;;;;;;;10.83;8.60;;;13.90;66.90;;;;;;5068383;28;20438;-78
2022/03/22 09:52:55;;;;;;;11.97;8.20;;;14.50;62.90;;;;;;5062283;28;20426;-80
2022/03/22 09:55:40;;;;;;;13.53;10.73;;;14.80;61.60;;;;;;5071160;28;20469;-81
2022/03/22 09:58:28;;;;;;;10.67;8.53;;;15.40;61.60;;;;;;5060809;28;20413;-82
2022/03/22 10:01:12;;;;;;;11.27;9.20;;;15.50;61.50;;;;;;5066910;28;20499;-80
2022/03/22 10:04:06;;;;;;;14.10;8.97;;;15.80;57.20;;;;;;5069879;28;20592;-81
2022/03/22 10:06:57;;;;;;;15.20;10.60;;;16.00;56.30;;;;;;5020077;28;20456;-82
2022/03/22 10:09:50;;;;;;;9.73;8.53;;;16.50;55.40;;;;;;5008780;28;20424;-81
2022/03/22 10:12:35;;;;;;;9.70;8.80;;;16.80;56.60;;;;;;5006312;28;20424;-79
2022/03/22 10:15:20;;;;;;;17.30;10.80;;;16.60;53.20;;;;;;5006174;28;21984;-81
2022/03/22 10:18:08;;;;;;;12.17;8.30;;;17.00;53.60;;;;;;5002225;28;20418;-82
2022/03/22 10:21:02;;;;;;;10.73;9.67;;;16.90;53.40;;;;;;5001039;28;20579;-82
2022/03/22 10:23:52;;;;;;;12.63;9.13;;;16.50;54.80;;;;;;5022150;28;20427;-81
2022/03/22 10:26:37;;;;;;;10.40;9.40;;;16.00;53.20;;;;;;5023732;28;20428;-83
2022/03/22 10:29:22;;;;;;;23.07;9.10;;;17.30;53.40;;;;;;5018417;28;20423;-82
2022/03/22 10:32:06;;;;;;;10.33;9.30;;;17.50;51.90;;;;;;5028138;28;20517;-80
2022/03/22 10:34:50;;;;;;;11.27;9.70;;;18.20;50.00;;;;;;5007918;28;20444;-81
2022/03/22 10:37:35;;;;;;;11.63;9.27;;;18.20;49.50;;;;;;5022282;28;20439;-82
2022/03/22 10:40:27;;;;;;;11.10;9.93;;;18.30;49.20;;;;;;5027936;28;20773;-82
2022/03/22 10:43:16;;;;;;;14.20;9.97;;;19.00;48.20;;;;;;5018179;28;20432;-82
2022/03/22 10:46:02;;;;;;;10.17;9.07;;;19.40;47.20;;;;;;5038385;28;20416;-81
2022/03/22 10:48:47;;;;;;;11.23;9.37;;;19.10;47.50;;;;;;5020020;28;20428;-82
2022/03/22 10:51:34;;;;;;;10.67;9.57;;;19.50;47.70;;;;;;5026571;28;20408;-82
2022/03/22 10:54:20;;;;;;;11.10;9.70;;;19.80;46.80;;;;;;5015458;28;20455;-82
2022/03/22 10:57:06;;;;;;;11.03;9.13;;;20.40;48.10;;;;;;5031653;28;20476;-82
2022/03/22 10:59:52;;;;;;;9.90;8.90;;;20.40;46.30;;;;;;5026775;28;20422;-81
2022/03/22 11:02:37;;;;;;;13.07;9.90;;;20.40;46.40;;;;;;5029486;28;20458;-82
2022/03/22 11:05:24;;;;;;;13.27;9.70;;;20.30;48.30;;;;;;5014263;28;20528;-82
2022/03/22 11:08:10;;;;;;;11.27;9.17;;;20.20;50.10;;;;;;5051544;28;20414;-82
2022/03/22 11:10:54;;;;;;;10.33;9.40;;;20.80;47.10;;;;;;5062704;28;20525;-81
2022/03/22 11:13:39;;;;;;;11.07;9.93;;;21.40;47.30;;;;;;5076040;28;20886;-81
2022/03/22 11:16:28;;;;;;;12.10;10.17;;;21.20;47.80;;;;;;5047608;28;20514;-82
2022/03/22 11:19:14;;;;;;;12.83;9.60;;;21.20;44.20;;;;;;5074165;28;20440;-80
2022/03/22 11:22:08;;;;;;;10.33;9.20;;;21.30;45.10;;;;;;5052096;28;20752;-80
2022/03/22 11:25:11;;;;;;;10.47;8.60;;;21.30;42.00;;;;;;5044602;28;20751;-79
2022/03/22 11:27:59;;;;;;;10.43;9.33;;;22.20;42.80;;;;;;5049393;28;20430;-80
2022/03/22 11:30:53;;;;;;;10.90;9.80;;;22.50;40.90;;;;;;5050188;28;20414;-80
2022/03/22 11:36:46;;;;;;;9.82;8.82;;;21.80;41.90;;;;;;5046274;28;20418;-82
2022/03/22 11:42:34;;;;;;;11.53;7.63;;;19.70;41.70;;;;;;5057371;28;20425;-83
2022/03/22 11:45:19;;;;;;;9.70;8.57;;;19.00;42.60;;;;;;5067658;28;20428;-83
2022/03/22 11:48:10;;;;;;;9.27;8.30;;;18.40;42.30;;;;;;5053864;28;20410;-82
2022/03/22 11:51:04;;;;;;;9.47;8.57;;;20.60;44.40;;;;;;5059624;28;20452;-81
2022/03/22 11:53:49;;;;;;;10.43;8.60;;;22.60;41.40;;;;;;5063332;28;20465;-82
2022/03/22 11:56:44;;;;;;;9.77;8.10;;;23.20;42.60;;;;;;5045214;28;20461;-83
2022/03/22 11:59:48;;;;;;;9.07;8.27;;;24.40;40.80;;;;;;5062221;28;20528;-79
2022/03/22 12:02:40;;;;;;;9.30;8.30;;;22.20;37.70;;;;;;5048554;28;20456;-81
2022/03/22 12:05:25;;;;;;;10.63;8.50;;;23.80;38.90;;;;;;5046776;28;20520;-80
2022/03/22 12:08:14;;;;;;;9.20;8.37;;;23.60;37.60;;;;;;5055614;28;20197;-80
2022/03/22 12:10:59;;;;;;;10.23;9.13;;;23.80;38.10;;;;;;5053974;28;20453;-81
2022/03/22 12:13:45;;;;;;;11.77;9.67;;;24.60;38.00;;;;;;5063619;28;20448;-79
2022/03/22 12:16:30;;;;;;;10.37;9.37;;;24.00;38.40;;;;;;5049991;28;20432;-79
2022/03/22 12:19:24;;;;;;;10.10;9.10;;;24.50;38.10;;;;;;5060279;28;20412;-79
2022/03/22 12:22:09;;;;;;;8.80;7.97;;;26.00;36.80;;;;;;5039346;28;20427;-79
2022/03/22 12:24:57;;;;;;;8.40;7.60;;;25.30;37.20;;;;;;5031432;28;20469;-81
2022/03/22 12:28:01;;;;;;;9.73;8.87;;;26.00;36.60;;;;;;5027338;28;20534;-80
2022/03/22 12:30:46;;;;;;;10.70;9.80;;;26.30;34.00;;;;;;5016608;28;20503;-79
2022/03/22 12:33:37;;;;;;;10.53;9.43;;;26.90;34.50;;;;;;5051033;28;20805;-81
2022/03/22 12:36:24;;;;;;;9.57;8.77;;;27.10;34.00;;;;;;5051647;28;20536;-80
2022/03/22 12:39:09;;;;;;;9.97;7.70;;;25.80;33.70;;;;;;5059150;28;20444;-78
2022/03/22 12:41:55;;;;;;;8.50;7.90;;;25.30;33.70;;;;;;5053030;28;20453;-79
2022/03/22 12:44:59;;;;;;;8.47;7.67;;;25.20;33.10;;;;;;5060184;28;20607;-80
2022/03/22 12:47:44;;;;;;;9.03;8.20;;;25.70;33.30;;;;;;5066244;28;20425;-81
2022/03/22 12:50:29;;;;;;;9.27;8.50;;;25.70;34.00;;;;;;5068705;28;20451;-79
2022/03/22 12:53:13;;;;;;;11.40;8.07;;;25.40;33.00;;;;;;5049331;28;20520;-79
2022/03/22 12:55:58;;;;;;;8.80;7.17;;;27.00;33.10;;;;;;5069334;28;20603;-82
2022/03/22 12:58:43;;;;;;;8.63;7.73;;;27.50;31.80;;;;;;5057009;28;20190;-81
2022/03/22 13:01:43;;;;;;;8.23;7.53;;;26.70;32.70;;;;;;5069243;28;20503;-82
2022/03/22 13:04:29;;;;;;;7.33;6.63;;;27.20;31.60;;;;;;5055059;28;20671;-82
2022/03/22 13:07:19;;;;;;;9.30;7.40;;;27.10;31.80;;;;;;5056575;28;20190;-83
2022/03/22 13:13:21;;;;;;;8.47;7.57;;;26.40;32.30;;;;;;5065441;28;20237;-81
2022/03/22 13:16:05;;;;;;;8.17;7.37;;;27.10;31.90;;;;;;5065772;28;20251;-81
2022/03/22 13:18:54;;;;;;;7.30;6.63;;;26.80;30.50;;;;;;5071549;28;20182;-81
2022/03/22 13:21:40;;;;;;;8.13;7.30;;;26.40;32.40;;;;;;5056924;28;20177;-80
2022/03/22 13:24:26;;;;;;;7.30;6.60;;;24.30;29.50;;;;;;5064658;28;20201;-80
2022/03/22 13:27:13;;;;;;;6.93;6.37;;;23.90;33.70;;;;;;5062630;28;20221;-78
2022/03/22 13:30:01;;;;;;;7.97;7.17;;;24.90;34.50;;;;;;5049911;28;20846;-78
2022/03/22 13:33:05;;;;;;;7.90;7.20;;;24.20;30.00;;;;;;5061851;28;20194;-81
2022/03/22 13:35:59;;;;;;;7.63;6.27;;;24.20;31.40;;;;;;5027229;28;20464;-80
2022/03/22 13:38:50;;;;;;;7.40;6.33;;;24.90;31.00;;;;;;5014639;28;20178;-80
2022/03/22 13:41:34;;;;;;;6.93;6.33;;;23.60;29.90;;;;;;5037404;28;20194;-81
2022/03/22 13:44:27;;;;;;;7.77;6.97;;;24.90;30.20;;;;;;5033003;28;20223;-81
2022/03/22 13:47:29;;;;;;;7.00;6.40;;;25.60;29.40;;;;;;5039848;28;20295;-81
2022/03/22 13:50:17;;;;;;;8.10;6.30;;;27.40;29.20;;;;;;5010018;28;20179;-81
2022/03/22 13:53:12;;;;;;;6.60;6.00;;;26.70;30.00;;;;;;5032346;28;20191;-82
2022/03/22 13:56:08;;;;;;;6.50;5.90;;;25.50;27.40;;;;;;5030044;28;20205;-82
2022/03/22 13:58:52;;;;;;;12.33;6.30;;;26.40;29.70;;;;;;5016939;28;20207;-80
2022/03/22 14:01:39;;;;;;;5.80;5.35;;;27.10;28.10;;;;;;5034292;28;20274;-80
2022/03/22 14:04:23;;;;;;;7.43;6.72;;;27.60;28.30;;;;;;5038455;28;20694;-81
2022/03/22 14:07:08;;;;;;;7.18;6.35;;;28.20;27.10;;;;;;5055948;28;20280;-81
2022/03/22 14:09:55;;;;;;;6.88;6.35;;;28.10;27.70;;;;;;5055562;28;20182;-80
2022/03/22 14:12:39;;;;;;;7.32;6.63;;;28.60;27.70;;;;;;5057365;28;20198;-80
2022/03/22 14:15:25;;;;;;;7.25;5.68;;;28.90;28.50;;;;;;5063758;28;20223;-82
2022/03/22 14:18:10;;;;;;;6.50;5.95;;;29.10;26.90;;;;;;5072251;28;20189;-80
2022/03/22 14:20:55;;;;;;;6.30;5.70;;;28.90;27.60;;;;;;5065041;28;20654;-81
2022/03/22 14:23:39;;;;;;;7.72;5.40;;;28.80;28.00;;;;;;5058326;28;20205;-81
2022/03/22 14:26:24;;;;;;;8.68;8.07;;;28.80;27.90;;;;;;5052967;28;20256;-83
2022/03/22 14:29:09;;;;;;;6.15;5.65;;;27.40;28.10;;;;;;5046801;28;20174;-82
2022/03/22 14:31:54;;;;;;;6.43;5.88;;;25.80;26.90;;;;;;5046446;28;20187;-79
2022/03/22 14:37:35;;;;;;;5.80;5.10;;;27.00;28.10;;;;;;5059239;28;20179;-82
2022/03/22 14:40:19;;;;;;;6.00;5.50;;;27.40;27.30;;;;;;5033508;28;20350;-81
2022/03/22 14:43:06;;;;;;;6.10;5.55;;;26.30;29.80;;;;;;5060059;28;20230;-81
2022/03/22 14:45:52;;;;;;;6.80;5.93;;;27.10;29.20;;;;;;5050979;28;20229;-81
2022/03/22 14:48:37;;;;;;;5.20;4.75;;;25.90;29.00;;;;;;5050361;28;20167;-81
2022/03/22 14:54:18;;;;;;;5.60;5.10;;;25.70;31.40;;;;;;5037247;28;20662;-81
2022/03/22 15:00:01;;;;;;;5.30;4.90;;;23.20;30.20;;;;;;5051982;28;20432;-83
2022/03/22 15:02:45;;;;;;;4.70;4.30;;;22.40;27.90;;;;;;5045929;28;20400;-82
2022/03/22 15:08:28;;;;;;;5.47;4.90;;;22.40;28.00;;;;;;5054889;28;20531;-80
2022/03/22 15:11:13;;;;;;;5.10;4.70;;;22.10;28.10;;;;;;5044791;28;20393;-81